Observations for Trim Patrick St
| Time | AQI | Temp °C | Hum % | Pres Pa | CO μg/m³ | H₂S μg/m³ | NO μg/m³ | NO₂ μg/m³ | O₃ μg/m³ | SO₂ μg/m³ | PM1 μg/m³ | PM2.5 μg/m³ | PM10 μg/m³ |
|---|---|---|---|---|---|---|---|---|---|---|---|---|---|
| Wednesday 5 August 2026 | |||||||||||||
| 00:40 | 3 | 16 | 75 | 38,460 | 0.05 | 2.91 | 2.52 | 13.71 | 65.63 | 0 | 3.71 | 6.98 | 7.67 |
| 00:39 | 3 | 16.1 | 75 | 38,460 | 0.05 | 2.31 | 2.42 | 12.55 | 59.92 | 0 | 3.71 | 6.98 | 7.68 |
| 00:38 | 3 | 16.1 | 75 | 38,460 | 0.06 | 2.36 | 2.42 | 16.99 | 64.33 | 0 | 4.57 | 8.41 | 9.25 |
| 00:37 | 3 | 16.1 | 74 | 38,460 | 0.06 | 1.29 | 2.45 | 15.27 | 59.2 | 0 | 3.71 | 7.74 | 8.52 |
| 00:36 | 3 | 16.1 | 74 | 38,460 | 0.07 | 1.19 | 2.37 | 9.32 | 55.67 | 0 | 3.71 | 7.74 | 8.52 |
| 00:35 | 3 | 16.2 | 75 | 38,460 | 0.04 | 1.71 | 2.32 | 11.69 | 57.97 | 0 | 4.57 | 7.71 | 8.48 |
| 00:34 | 3 | 16.2 | 74 | 38,460 | 0.06 | 1.66 | 2.34 | 12.78 | 64.72 | 0 | 4.57 | 9.15 | 10.07 |
| 00:33 | 3 | 16.2 | 74 | 38,460 | 0.06 | 1.42 | 2.35 | 11.89 | 56.46 | 0 | 4.57 | 8.43 | 9.27 |
| 00:32 | 3 | 16.2 | 74 | 38,460 | 0.06 | 1.68 | 2.33 | 11.95 | 60.12 | 0 | 5.43 | 10.58 | 11.63 |
| 00:31 | 3 | 16.2 | 74 | 38,460 | 0.07 | 1.74 | 2.41 | 13.71 | 64.28 | 0 | 5.43 | 10.59 | 11.65 |
| 00:30 | 3 | 16.3 | 73 | 38,460 | 0.08 | 0.74 | 2.51 | 11.07 | 55.9 | 0 | 5.43 | 10.71 | 11.78 |
| 00:29 | 3 | 16.3 | 73 | 38,460 | 0.06 | 1.08 | 2.49 | 12.75 | 60.66 | 0 | 6.29 | 11.42 | 12.56 |
| 00:28 | 3 | 16.3 | 73 | 38,460 | 0.08 | 0.64 | 2.43 | 9.6 | 49.24 | 0 | 7.14 | 12.11 | 13.32 |
| 00:27 | 3 | 16.3 | 73 | 38,460 | 0.08 | 1.6 | 2.39 | 10.05 | 50.79 | 0 | 7.14 | 12.82 | 14.1 |
| 00:26 | 3 | 16.3 | 73 | 38,460 | 0.09 | 1.11 | 2.39 | 15.04 | 61.37 | 0 | 8.86 | 13.54 | 14.89 |
| 00:25 | 3 | 16.3 | 73 | 38,460 | 0.08 | 0.4 | 2.35 | 10.12 | 53.06 | 0 | 8 | 14.22 | 15.64 |
| 00:24 | 3 | 16.4 | 73 | 38,460 | 0.07 | 0 | 2.39 | 7.14 | 44.62 | 0 | 6.29 | 12.11 | 13.32 |
| 00:23 | 3 | 16.4 | 74 | 38,460 | 0.08 | 1.76 | 2.37 | 12.15 | 64.9 | 0 | 7.14 | 11.32 | 12.45 |
| 00:22 | 3 | 16.4 | 73 | 38,460 | 0.08 | 1.76 | 2.47 | 11.27 | 61.16 | 0 | 6.29 | 10.67 | 11.73 |
| 00:20 | 3 | 16.5 | 73 | 38,460 | 0.08 | 1.81 | 2.41 | 11.11 | 62.62 | 0 | 8 | 12.81 | 14.09 |